sensor_id;sensor_type;location;lat;lon;timestamp;temperature;humidity
70947;DHT22;58605;48.700;8.760;2022-11-23T00:02:06;1.50;99.90
70947;DHT22;58605;48.700;8.760;2022-11-23T00:04:32;1.40;99.90
70947;DHT22;58605;48.700;8.760;2022-11-23T00:06:58;1.40;99.90
70947;DHT22;58605;48.700;8.760;2022-11-23T00:09:24;1.40;99.90
70947;DHT22;58605;48.700;8.760;2022-11-23T00:11:50;1.30;99.90
70947;DHT22;58605;48.700;8.760;2022-11-23T00:14:16;1.20;99.90
70947;DHT22;58605;48.700;8.760;2022-11-23T00:16:44;1.10;99.90
70947;DHT22;58605;48.700;8.760;2022-11-23T00:19:10;1.00;99.90
70947;DHT22;58605;48.700;8.760;2022-11-23T00:21:36;0.90;99.90
70947;DHT22;58605;48.700;8.760;2022-11-23T00:24:02;1.00;99.90
70947;DHT22;58605;48.700;8.760;2022-11-23T00:26:28;1.00;99.90
70947;DHT22;58605;48.700;8.760;2022-11-23T00:28:54;1.10;99.90
70947;DHT22;58605;48.700;8.760;2022-11-23T00:31:21;1.10;99.90
70947;DHT22;58605;48.700;8.760;2022-11-23T00:33:53;1.10;99.90
70947;DHT22;58605;48.700;8.760;2022-11-23T00:36:20;1.20;99.90
70947;DHT22;58605;48.700;8.760;2022-11-23T00:38:47;1.20;99.90
70947;DHT22;58605;48.700;8.760;2022-11-23T00:41:15;1.10;99.90
70947;DHT22;58605;48.700;8.760;2022-11-23T00:43:41;1.00;99.90
70947;DHT22;58605;48.700;8.760;2022-11-23T00:46:11;1.00;99.90
70947;DHT22;58605;48.700;8.760;2022-11-23T00:48:37;1.10;99.90
70947;DHT22;58605;48.700;8.760;2022-11-23T00:51:06;1.20;99.90
70947;DHT22;58605;48.700;8.760;2022-11-23T00:53:34;1.20;99.90
70947;DHT22;58605;48.700;8.760;2022-11-23T00:56:00;1.20;99.90
70947;DHT22;58605;48.700;8.760;2022-11-23T00:58:26;1.20;99.90
70947;DHT22;58605;48.700;8.760;2022-11-23T01:01:00;1.30;99.90
70947;DHT22;58605;48.700;8.760;2022-11-23T01:03:27;1.30;99.90
70947;DHT22;58605;48.700;8.760;2022-11-23T01:05:53;1.30;99.90
70947;DHT22;58605;48.700;8.760;2022-11-23T01:08:21;1.40;99.90
70947;DHT22;58605;48.700;8.760;2022-11-23T01:10:47;1.40;99.90
70947;DHT22;58605;48.700;8.760;2022-11-23T01:13:13;1.40;99.90
70947;DHT22;58605;48.700;8.760;2022-11-23T01:15:41;1.40;99.90
70947;DHT22;58605;48.700;8.760;2022-11-23T01:18:13;1.30;99.90
70947;DHT22;58605;48.700;8.760;2022-11-23T01:20:39;1.20;99.90
70947;DHT22;58605;48.700;8.760;2022-11-23T01:23:05;1.10;99.90
70947;DHT22;58605;48.700;8.760;2022-11-23T01:25:34;1.10;99.90
70947;DHT22;58605;48.700;8.760;2022-11-23T01:28:00;1.10;99.90
70947;DHT22;58605;48.700;8.760;2022-11-23T01:30:27;1.10;99.90
70947;DHT22;58605;48.700;8.760;2022-11-23T01:32:53;1.10;99.90
70947;DHT22;58605;48.700;8.760;2022-11-23T01:35:19;1.20;99.90
70947;DHT22;58605;48.700;8.760;2022-11-23T01:37:45;1.30;99.90
70947;DHT22;58605;48.700;8.760;2022-11-23T01:40:11;1.20;99.90
70947;DHT22;58605;48.700;8.760;2022-11-23T01:42:50;1.20;99.90
70947;DHT22;58605;48.700;8.760;2022-11-23T01:45:35;1.20;99.90
70947;DHT22;58605;48.700;8.760;2022-11-23T01:48:02;1.20;99.90
70947;DHT22;58605;48.700;8.760;2022-11-23T01:50:30;1.10;99.90
70947;DHT22;58605;48.700;8.760;2022-11-23T01:52:57;1.10;99.90
70947;DHT22;58605;48.700;8.760;2022-11-23T01:55:23;1.10;99.90
70947;DHT22;58605;48.700;8.760;2022-11-23T01:57:51;1.00;99.90
70947;DHT22;58605;48.700;8.760;2022-11-23T02:00:18;0.90;99.90
70947;DHT22;58605;48.700;8.760;2022-11-23T02:02:48;0.90;99.90
70947;DHT22;58605;48.700;8.760;2022-11-23T02:05:17;0.80;99.90
70947;DHT22;58605;48.700;8.760;2022-11-23T02:07:46;0.70;99.90
70947;DHT22;58605;48.700;8.760;2022-11-23T02:10:12;0.60;99.90
70947;DHT22;58605;48.700;8.760;2022-11-23T02:12:38;0.50;99.90
70947;DHT22;58605;48.700;8.760;2022-11-23T02:15:07;0.40;99.90
70947;DHT22;58605;48.700;8.760;2022-11-23T02:17:33;0.50;99.90
70947;DHT22;58605;48.700;8.760;2022-11-23T02:20:03;0.50;99.90
70947;DHT22;58605;48.700;8.760;2022-11-23T02:22:32;0.60;99.90
70947;DHT22;58605;48.700;8.760;2022-11-23T02:25:08;0.70;99.90
70947;DHT22;58605;48.700;8.760;2022-11-23T02:27:45;0.70;99.90
70947;DHT22;58605;48.700;8.760;2022-11-23T02:30:12;0.80;99.90
70947;DHT22;58605;48.700;8.760;2022-11-23T02:32:38;0.80;99.90
70947;DHT22;58605;48.700;8.760;2022-11-23T02:35:04;0.80;99.90
70947;DHT22;58605;48.700;8.760;2022-11-23T02:37:30;0.70;99.90
70947;DHT22;58605;48.700;8.760;2022-11-23T02:40:08;0.70;99.90
70947;DHT22;58605;48.700;8.760;2022-11-23T02:42:37;0.60;99.90
70947;DHT22;58605;48.700;8.760;2022-11-23T02:45:10;0.70;99.90
70947;DHT22;58605;48.700;8.760;2022-11-23T02:47:40;0.60;99.90
70947;DHT22;58605;48.700;8.760;2022-11-23T02:50:06;0.60;99.90
70947;DHT22;58605;48.700;8.760;2022-11-23T02:52:32;0.60;99.90
70947;DHT22;58605;48.700;8.760;2022-11-23T02:54:58;0.50;99.90
70947;DHT22;58605;48.700;8.760;2022-11-23T02:57:24;0.50;99.90
70947;DHT22;58605;48.700;8.760;2022-11-23T02:59:50;0.60;99.90
70947;DHT22;58605;48.700;8.760;2022-11-23T03:02:18;0.60;99.90
70947;DHT22;58605;48.700;8.760;2022-11-23T03:04:44;0.70;99.90
70947;DHT22;58605;48.700;8.760;2022-11-23T03:07:10;0.70;99.90
70947;DHT22;58605;48.700;8.760;2022-11-23T03:09:36;0.80;99.90
70947;DHT22;58605;48.700;8.760;2022-11-23T03:12:02;0.80;99.90
70947;DHT22;58605;48.700;8.760;2022-11-23T03:14:27;0.80;99.90
70947;DHT22;58605;48.700;8.760;2022-11-23T03:16:53;0.80;99.90
70947;DHT22;58605;48.700;8.760;2022-11-23T03:19:21;0.80;99.90
70947;DHT22;58605;48.700;8.760;2022-11-23T03:21:47;0.70;99.90
70947;DHT22;58605;48.700;8.760;2022-11-23T03:24:13;0.80;99.90
70947;DHT22;58605;48.700;8.760;2022-11-23T03:26:39;0.90;99.90
70947;DHT22;58605;48.700;8.760;2022-11-23T03:29:04;1.00;99.90
70947;DHT22;58605;48.700;8.760;2022-11-23T03:31:30;1.00;99.90
70947;DHT22;58605;48.700;8.760;2022-11-23T03:33:56;1.10;99.90
70947;DHT22;58605;48.700;8.760;2022-11-23T03:36:24;1.20;99.90
70947;DHT22;58605;48.700;8.760;2022-11-23T03:38:50;1.10;99.90
70947;DHT22;58605;48.700;8.760;2022-11-23T03:41:16;1.10;99.90
70947;DHT22;58605;48.700;8.760;2022-11-23T03:43:41;1.10;99.90
70947;DHT22;58605;48.700;8.760;2022-11-23T03:46:07;1.10;99.90
70947;DHT22;58605;48.700;8.760;2022-11-23T03:48:33;1.10;99.90
70947;DHT22;58605;48.700;8.760;2022-11-23T03:50:59;1.10;99.90
70947;DHT22;58605;48.700;8.760;2022-11-23T03:53:27;1.10;99.90
70947;DHT22;58605;48.700;8.760;2022-11-23T03:55:53;1.10;99.90
70947;DHT22;58605;48.700;8.760;2022-11-23T03:58:20;1.10;99.90
70947;DHT22;58605;48.700;8.760;2022-11-23T04:00:46;1.00;99.90
70947;DHT22;58605;48.700;8.760;2022-11-23T04:03:12;1.10;99.90
70947;DHT22;58605;48.700;8.760;2022-11-23T04:05:38;1.00;99.90
70947;DHT22;58605;48.700;8.760;2022-11-23T04:08:04;1.10;99.90
70947;DHT22;58605;48.700;8.760;2022-11-23T04:10:32;1.10;99.90
70947;DHT22;58605;48.700;8.760;2022-11-23T04:12:58;1.30;99.90
70947;DHT22;58605;48.700;8.760;2022-11-23T04:15:24;1.20;99.90
70947;DHT22;58605;48.700;8.760;2022-11-23T04:17:50;1.20;99.90
70947;DHT22;58605;48.700;8.760;2022-11-23T04:20:16;1.10;99.90
70947;DHT22;58605;48.700;8.760;2022-11-23T04:22:42;1.00;99.90
70947;DHT22;58605;48.700;8.760;2022-11-23T04:25:08;1.00;99.90
70947;DHT22;58605;48.700;8.760;2022-11-23T04:27:36;1.00;99.90
70947;DHT22;58605;48.700;8.760;2022-11-23T04:30:03;1.00;99.90
70947;DHT22;58605;48.700;8.760;2022-11-23T04:32:29;0.90;99.90
70947;DHT22;58605;48.700;8.760;2022-11-23T04:34:55;0.90;99.90
70947;DHT22;58605;48.700;8.760;2022-11-23T04:37:21;0.90;99.90
70947;DHT22;58605;48.700;8.760;2022-11-23T04:39:47;0.90;99.90
70947;DHT22;58605;48.700;8.760;2022-11-23T04:42:13;1.00;99.90
70947;DHT22;58605;48.700;8.760;2022-11-23T04:44:40;1.00;99.90
70947;DHT22;58605;48.700;8.760;2022-11-23T04:47:07;1.10;99.90
70947;DHT22;58605;48.700;8.760;2022-11-23T04:49:33;1.00;99.90
70947;DHT22;58605;48.700;8.760;2022-11-23T04:51:59;0.90;99.90
70947;DHT22;58605;48.700;8.760;2022-11-23T04:54:25;0.90;99.90
70947;DHT22;58605;48.700;8.760;2022-11-23T04:56:51;0.90;99.90
70947;DHT22;58605;48.700;8.760;2022-11-23T04:59:18;0.90;99.90
70947;DHT22;58605;48.700;8.760;2022-11-23T05:01:46;0.90;99.90
70947;DHT22;58605;48.700;8.760;2022-11-23T05:04:12;0.90;99.90
70947;DHT22;58605;48.700;8.760;2022-11-23T05:06:38;0.90;99.90
70947;DHT22;58605;48.700;8.760;2022-11-23T05:09:03;0.90;99.90
70947;DHT22;58605;48.700;8.760;2022-11-23T05:11:29;0.90;99.90
70947;DHT22;58605;48.700;8.760;2022-11-23T05:13:55;0.80;99.90
70947;DHT22;58605;48.700;8.760;2022-11-23T05:16:21;0.80;99.90
70947;DHT22;58605;48.700;8.760;2022-11-23T05:18:49;0.80;99.90
70947;DHT22;58605;48.700;8.760;2022-11-23T05:21:14;0.80;99.90
70947;DHT22;58605;48.700;8.760;2022-11-23T05:23:40;0.80;99.90
70947;DHT22;58605;48.700;8.760;2022-11-23T05:26:06;0.80;99.90
70947;DHT22;58605;48.700;8.760;2022-11-23T05:28:32;0.70;99.90
70947;DHT22;58605;48.700;8.760;2022-11-23T05:30:58;0.70;99.90
70947;DHT22;58605;48.700;8.760;2022-11-23T05:33:24;0.70;99.90
70947;DHT22;58605;48.700;8.760;2022-11-23T05:35:52;0.70;99.90
70947;DHT22;58605;48.700;8.760;2022-11-23T05:38:18;0.60;99.90
70947;DHT22;58605;48.700;8.760;2022-11-23T05:40:44;0.60;99.90
70947;DHT22;58605;48.700;8.760;2022-11-23T05:43:10;0.60;99.90
70947;DHT22;58605;48.700;8.760;2022-11-23T05:45:36;0.50;99.90
70947;DHT22;58605;48.700;8.760;2022-11-23T05:48:02;0.40;99.90
70947;DHT22;58605;48.700;8.760;2022-11-23T05:50:28;0.40;99.90
70947;DHT22;58605;48.700;8.760;2022-11-23T05:52:57;0.40;99.90
70947;DHT22;58605;48.700;8.760;2022-11-23T05:55:23;0.40;99.90
70947;DHT22;58605;48.700;8.760;2022-11-23T05:57:49;0.50;99.90
70947;DHT22;58605;48.700;8.760;2022-11-23T06:00:16;0.40;99.90
70947;DHT22;58605;48.700;8.760;2022-11-23T06:02:42;0.50;99.90
70947;DHT22;58605;48.700;8.760;2022-11-23T06:05:08;0.50;99.90
70947;DHT22;58605;48.700;8.760;2022-11-23T06:07:35;0.50;99.90
70947;DHT22;58605;48.700;8.760;2022-11-23T06:10:04;0.50;99.90
70947;DHT22;58605;48.700;8.760;2022-11-23T06:12:30;0.50;99.90
70947;DHT22;58605;48.700;8.760;2022-11-23T06:14:56;0.40;99.90
70947;DHT22;58605;48.700;8.760;2022-11-23T06:17:22;0.30;99.90
70947;DHT22;58605;48.700;8.760;2022-11-23T06:19:49;0.20;99.90
70947;DHT22;58605;48.700;8.760;2022-11-23T06:22:15;0.10;99.90
70947;DHT22;58605;48.700;8.760;2022-11-23T06:24:41;0.00;99.90
70947;DHT22;58605;48.700;8.760;2022-11-23T06:27:09;-0.10;99.90
70947;DHT22;58605;48.700;8.760;2022-11-23T06:29:35;0.00;99.90
70947;DHT22;58605;48.700;8.760;2022-11-23T06:32:00;0.00;99.90
70947;DHT22;58605;48.700;8.760;2022-11-23T06:34:27;0.00;99.90
70947;DHT22;58605;48.700;8.760;2022-11-23T06:36:53;0.00;99.90
70947;DHT22;58605;48.700;8.760;2022-11-23T06:39:19;0.10;99.90
70947;DHT22;58605;48.700;8.760;2022-11-23T06:41:45;0.10;99.90
70947;DHT22;58605;48.700;8.760;2022-11-23T06:44:12;0.20;99.90
70947;DHT22;58605;48.700;8.760;2022-11-23T06:46:38;0.20;99.90
70947;DHT22;58605;48.700;8.760;2022-11-23T06:49:04;0.30;99.90
70947;DHT22;58605;48.700;8.760;2022-11-23T06:51:30;0.40;99.90
70947;DHT22;58605;48.700;8.760;2022-11-23T06:53:56;0.30;99.90
70947;DHT22;58605;48.700;8.760;2022-11-23T06:56:22;0.30;99.90
70947;DHT22;58605;48.700;8.760;2022-11-23T06:58:48;0.20;99.90
70947;DHT22;58605;48.700;8.760;2022-11-23T07:01:15;0.20;99.90
70947;DHT22;58605;48.700;8.760;2022-11-23T07:03:41;0.10;99.90
70947;DHT22;58605;48.700;8.760;2022-11-23T07:06:08;0.00;99.90
70947;DHT22;58605;48.700;8.760;2022-11-23T07:08:35;-0.10;99.90
70947;DHT22;58605;48.700;8.760;2022-11-23T07:11:01;-0.20;99.90
70947;DHT22;58605;48.700;8.760;2022-11-23T07:13:27;-0.20;99.90
70947;DHT22;58605;48.700;8.760;2022-11-23T07:15:53;-0.30;99.90
70947;DHT22;58605;48.700;8.760;2022-11-23T07:18:21;-0.30;99.90
70947;DHT22;58605;48.700;8.760;2022-11-23T07:20:47;-0.30;99.90
70947;DHT22;58605;48.700;8.760;2022-11-23T07:23:13;-0.30;99.90
70947;DHT22;58605;48.700;8.760;2022-11-23T07:25:39;-0.30;99.90
70947;DHT22;58605;48.700;8.760;2022-11-23T07:28:06;-0.30;99.90
70947;DHT22;58605;48.700;8.760;2022-11-23T07:30:33;-0.30;99.90
70947;DHT22;58605;48.700;8.760;2022-11-23T07:33:00;-0.30;99.90
70947;DHT22;58605;48.700;8.760;2022-11-23T07:35:28;-0.20;99.90
70947;DHT22;58605;48.700;8.760;2022-11-23T07:37:54;-0.20;99.90
70947;DHT22;58605;48.700;8.760;2022-11-23T07:40:20;-0.10;99.90
70947;DHT22;58605;48.700;8.760;2022-11-23T07:42:46;-0.10;99.90
70947;DHT22;58605;48.700;8.760;2022-11-23T07:45:12;-0.10;99.90
70947;DHT22;58605;48.700;8.760;2022-11-23T07:47:39;0.10;99.90
70947;DHT22;58605;48.700;8.760;2022-11-23T07:50:06;0.10;99.90
70947;DHT22;58605;48.700;8.760;2022-11-23T07:52:35;0.20;99.90
70947;DHT22;58605;48.700;8.760;2022-11-23T07:55:01;0.20;99.90
70947;DHT22;58605;48.700;8.760;2022-11-23T07:57:27;0.30;99.90
70947;DHT22;58605;48.700;8.760;2022-11-23T07:59:53;0.40;99.90
70947;DHT22;58605;48.700;8.760;2022-11-23T08:02:19;0.50;99.90
70947;DHT22;58605;48.700;8.760;2022-11-23T08:04:46;0.60;99.90
70947;DHT22;58605;48.700;8.760;2022-11-23T08:07:11;0.60;99.90
70947;DHT22;58605;48.700;8.760;2022-11-23T08:09:39;0.60;99.90
70947;DHT22;58605;48.700;8.760;2022-11-23T08:12:06;0.60;99.90
70947;DHT22;58605;48.700;8.760;2022-11-23T08:14:31;0.60;99.90
70947;DHT22;58605;48.700;8.760;2022-11-23T08:16:57;0.60;99.90
70947;DHT22;58605;48.700;8.760;2022-11-23T08:19:23;0.50;99.90
70947;DHT22;58605;48.700;8.760;2022-11-23T08:21:49;0.40;99.90
70947;DHT22;58605;48.700;8.760;2022-11-23T08:24:15;0.40;99.90
70947;DHT22;58605;48.700;8.760;2022-11-23T08:26:43;0.40;99.90
70947;DHT22;58605;48.700;8.760;2022-11-23T08:29:09;0.50;99.90
70947;DHT22;58605;48.700;8.760;2022-11-23T08:31:34;0.50;99.90
70947;DHT22;58605;48.700;8.760;2022-11-23T08:34:00;0.60;99.90
70947;DHT22;58605;48.700;8.760;2022-11-23T08:36:26;0.60;99.90
70947;DHT22;58605;48.700;8.760;2022-11-23T08:38:52;0.70;99.90
70947;DHT22;58605;48.700;8.760;2022-11-23T08:41:19;0.90;99.90
70947;DHT22;58605;48.700;8.760;2022-11-23T08:43:54;1.10;99.90
70947;DHT22;58605;48.700;8.760;2022-11-23T08:46:19;1.20;99.90
70947;DHT22;58605;48.700;8.760;2022-11-23T08:48:45;1.40;99.90
70947;DHT22;58605;48.700;8.760;2022-11-23T08:51:11;1.50;99.90
70947;DHT22;58605;48.700;8.760;2022-11-23T08:53:37;1.60;99.90
70947;DHT22;58605;48.700;8.760;2022-11-23T08:56:06;1.80;99.90
70947;DHT22;58605;48.700;8.760;2022-11-23T08:58:32;2.00;99.90
70947;DHT22;58605;48.700;8.760;2022-11-23T09:00:59;1.90;99.90
70947;DHT22;58605;48.700;8.760;2022-11-23T09:03:25;1.90;99.90
70947;DHT22;58605;48.700;8.760;2022-11-23T09:05:51;1.90;99.90
70947;DHT22;58605;48.700;8.760;2022-11-23T09:08:19;2.00;99.90
70947;DHT22;58605;48.700;8.760;2022-11-23T09:10:45;2.20;99.90
70947;DHT22;58605;48.700;8.760;2022-11-23T09:13:11;2.30;99.90
70947;DHT22;58605;48.700;8.760;2022-11-23T09:15:38;2.50;99.90
70947;DHT22;58605;48.700;8.760;2022-11-23T09:18:05;2.70;99.90
70947;DHT22;58605;48.700;8.760;2022-11-23T09:20:31;2.90;99.90
70947;DHT22;58605;48.700;8.760;2022-11-23T09:23:03;3.00;99.90
70947;DHT22;58605;48.700;8.760;2022-11-23T09:25:29;3.00;99.90
70947;DHT22;58605;48.700;8.760;2022-11-23T09:27:59;3.10;99.90
70947;DHT22;58605;48.700;8.760;2022-11-23T09:30:25;3.30;99.90
70947;DHT22;58605;48.700;8.760;2022-11-23T09:32:51;3.50;99.90
70947;DHT22;58605;48.700;8.760;2022-11-23T09:35:18;3.80;99.90
70947;DHT22;58605;48.700;8.760;2022-11-23T09:37:44;4.00;99.90
70947;DHT22;58605;48.700;8.760;2022-11-23T09:40:14;4.20;99.90
70947;DHT22;58605;48.700;8.760;2022-11-23T09:42:53;4.30;99.90
70947;DHT22;58605;48.700;8.760;2022-11-23T09:45:29;4.50;99.90
70947;DHT22;58605;48.700;8.760;2022-11-23T09:48:27;4.50;99.90
70947;DHT22;58605;48.700;8.760;2022-11-23T09:51:04;4.70;99.90
70947;DHT22;58605;48.700;8.760;2022-11-23T09:53:38;4.60;99.90
70947;DHT22;58605;48.700;8.760;2022-11-23T09:56:15;4.70;99.90
70947;DHT22;58605;48.700;8.760;2022-11-23T09:58:42;4.80;99.90
70947;DHT22;58605;48.700;8.760;2022-11-23T10:01:11;4.80;99.90
70947;DHT22;58605;48.700;8.760;2022-11-23T10:03:39;4.80;99.90
70947;DHT22;58605;48.700;8.760;2022-11-23T10:06:18;4.80;99.90
70947;DHT22;58605;48.700;8.760;2022-11-23T10:08:54;4.80;99.90
70947;DHT22;58605;48.700;8.760;2022-11-23T10:11:34;4.60;99.90
70947;DHT22;58605;48.700;8.760;2022-11-23T10:14:17;4.60;99.90
70947;DHT22;58605;48.700;8.760;2022-11-23T10:16:51;4.50;99.90
70947;DHT22;58605;48.700;8.760;2022-11-23T10:19:25;4.30;99.90
70947;DHT22;58605;48.700;8.760;2022-11-23T10:22:01;4.40;99.90
70947;DHT22;58605;48.700;8.760;2022-11-23T10:24:32;4.40;99.90
70947;DHT22;58605;48.700;8.760;2022-11-23T10:27:01;4.40;99.90
70947;DHT22;58605;48.700;8.760;2022-11-23T10:29:32;4.40;99.90
70947;DHT22;58605;48.700;8.760;2022-11-23T10:31:59;4.50;99.90
70947;DHT22;58605;48.700;8.760;2022-11-23T10:34:40;4.50;99.90
70947;DHT22;58605;48.700;8.760;2022-11-23T10:37:11;4.50;99.90
70947;DHT22;58605;48.700;8.760;2022-11-23T10:39:38;4.50;99.90
70947;DHT22;58605;48.700;8.760;2022-11-23T10:42:13;4.60;99.90
70947;DHT22;58605;48.700;8.760;2022-11-23T10:44:44;4.60;99.90
70947;DHT22;58605;48.700;8.760;2022-11-23T10:47:34;4.70;99.90
70947;DHT22;58605;48.700;8.760;2022-11-23T10:50:00;4.70;99.90
70947;DHT22;58605;48.700;8.760;2022-11-23T10:52:28;4.70;99.90
70947;DHT22;58605;48.700;8.760;2022-11-23T10:54:56;4.70;99.90
70947;DHT22;58605;48.700;8.760;2022-11-23T10:57:30;4.80;99.90
70947;DHT22;58605;48.700;8.760;2022-11-23T10:59:58;4.80;99.90
70947;DHT22;58605;48.700;8.760;2022-11-23T11:02:25;4.70;99.90
70947;DHT22;58605;48.700;8.760;2022-11-23T11:05:21;4.80;99.90
70947;DHT22;58605;48.700;8.760;2022-11-23T11:07:48;4.80;99.90
70947;DHT22;58605;48.700;8.760;2022-11-23T11:10:34;4.80;99.90
70947;DHT22;58605;48.700;8.760;2022-11-23T11:13:01;4.80;99.90
70947;DHT22;58605;48.700;8.760;2022-11-23T11:15:27;4.80;99.90
70947;DHT22;58605;48.700;8.760;2022-11-23T11:17:54;4.90;99.90
70947;DHT22;58605;48.700;8.760;2022-11-23T11:20:32;4.90;99.90
70947;DHT22;58605;48.700;8.760;2022-11-23T11:23:00;4.90;99.90
70947;DHT22;58605;48.700;8.760;2022-11-23T11:25:29;4.90;99.90
70947;DHT22;58605;48.700;8.760;2022-11-23T11:27:56;4.90;99.90
70947;DHT22;58605;48.700;8.760;2022-11-23T11:30:23;5.00;99.90
70947;DHT22;58605;48.700;8.760;2022-11-23T11:32:54;5.00;99.90
70947;DHT22;58605;48.700;8.760;2022-11-23T11:35:25;5.00;99.90
70947;DHT22;58605;48.700;8.760;2022-11-23T11:37:59;5.00;99.90
70947;DHT22;58605;48.700;8.760;2022-11-23T11:40:29;5.00;99.90
70947;DHT22;58605;48.700;8.760;2022-11-23T11:43:00;4.90;99.90
70947;DHT22;58605;48.700;8.760;2022-11-23T11:45:30;5.00;99.90
70947;DHT22;58605;48.700;8.760;2022-11-23T11:48:02;5.00;99.90
70947;DHT22;58605;48.700;8.760;2022-11-23T11:50:32;5.00;99.90
70947;DHT22;58605;48.700;8.760;2022-11-23T11:53:06;5.00;99.90
70947;DHT22;58605;48.700;8.760;2022-11-23T11:55:44;4.90;99.90
70947;DHT22;58605;48.700;8.760;2022-11-23T11:58:14;5.00;99.90
70947;DHT22;58605;48.700;8.760;2022-11-23T12:00:41;5.10;99.90
70947;DHT22;58605;48.700;8.760;2022-11-23T12:03:16;5.20;99.90
70947;DHT22;58605;48.700;8.760;2022-11-23T12:05:47;5.10;99.90
70947;DHT22;58605;48.700;8.760;2022-11-23T12:08:21;5.10;99.90
70947;DHT22;58605;48.700;8.760;2022-11-23T12:10:51;5.10;99.90
70947;DHT22;58605;48.700;8.760;2022-11-23T12:13:19;5.10;99.90
70947;DHT22;58605;48.700;8.760;2022-11-23T12:15:48;5.10;99.90
70947;DHT22;58605;48.700;8.760;2022-11-23T12:18:34;5.10;99.90
70947;DHT22;58605;48.700;8.760;2022-11-23T12:21:04;5.10;99.90
70947;DHT22;58605;48.700;8.760;2022-11-23T12:23:43;5.10;99.90
70947;DHT22;58605;48.700;8.760;2022-11-23T12:26:19;5.10;99.90
70947;DHT22;58605;48.700;8.760;2022-11-23T12:29:00;5.10;99.90
70947;DHT22;58605;48.700;8.760;2022-11-23T12:31:38;5.20;99.90
70947;DHT22;58605;48.700;8.760;2022-11-23T12:34:21;5.20;99.90
70947;DHT22;58605;48.700;8.760;2022-11-23T12:37:13;5.20;99.90
70947;DHT22;58605;48.700;8.760;2022-11-23T12:40:16;5.20;99.90
70947;DHT22;58605;48.700;8.760;2022-11-23T12:42:46;5.20;99.90
70947;DHT22;58605;48.700;8.760;2022-11-23T12:45:38;5.20;99.90
70947;DHT22;58605;48.700;8.760;2022-11-23T12:48:20;5.20;99.90
70947;DHT22;58605;48.700;8.760;2022-11-23T12:50:56;5.30;99.90
70947;DHT22;58605;48.700;8.760;2022-11-23T12:53:33;5.30;99.90
70947;DHT22;58605;48.700;8.760;2022-11-23T12:56:09;5.30;99.90
70947;DHT22;58605;48.700;8.760;2022-11-23T12:58:39;5.30;99.90
70947;DHT22;58605;48.700;8.760;2022-11-23T13:01:11;5.30;99.90
70947;DHT22;58605;48.700;8.760;2022-11-23T13:04:19;5.30;99.90
70947;DHT22;58605;48.700;8.760;2022-11-23T13:10:18;5.30;99.90
70947;DHT22;58605;48.700;8.760;2022-11-23T13:16:01;5.40;99.90
70947;DHT22;58605;48.700;8.760;2022-11-23T13:18:45;5.40;99.90
70947;DHT22;58605;48.700;8.760;2022-11-23T13:21:20;5.50;99.90
70947;DHT22;58605;48.700;8.760;2022-11-23T13:23:47;5.50;99.90
70947;DHT22;58605;48.700;8.760;2022-11-23T13:26:15;5.40;99.90
70947;DHT22;58605;48.700;8.760;2022-11-23T13:28:43;5.40;99.90
70947;DHT22;58605;48.700;8.760;2022-11-23T13:31:34;5.40;99.90
70947;DHT22;58605;48.700;8.760;2022-11-23T13:34:01;5.40;99.90
70947;DHT22;58605;48.700;8.760;2022-11-23T13:36:36;5.50;99.90
70947;DHT22;58605;48.700;8.760;2022-11-23T13:42:24;5.50;99.90
70947;DHT22;58605;48.700;8.760;2022-11-23T13:45:24;5.50;99.90
70947;DHT22;58605;48.700;8.760;2022-11-23T13:48:18;5.50;99.90
70947;DHT22;58605;48.700;8.760;2022-11-23T13:50:58;5.50;99.90
70947;DHT22;58605;48.700;8.760;2022-11-23T13:53:28;5.40;99.90
70947;DHT22;58605;48.700;8.760;2022-11-23T13:55:57;5.30;99.90
70947;DHT22;58605;48.700;8.760;2022-11-23T13:58:48;5.40;99.90
70947;DHT22;58605;48.700;8.760;2022-11-23T14:01:58;5.40;99.90
70947;DHT22;58605;48.700;8.760;2022-11-23T14:04:25;5.40;99.90
70947;DHT22;58605;48.700;8.760;2022-11-23T14:06:53;5.50;99.90
70947;DHT22;58605;48.700;8.760;2022-11-23T14:09:25;5.50;99.90
70947;DHT22;58605;48.700;8.760;2022-11-23T14:12:01;5.50;99.90
70947;DHT22;58605;48.700;8.760;2022-11-23T14:14:32;5.50;99.90
70947;DHT22;58605;48.700;8.760;2022-11-23T14:17:23;5.50;99.90
70947;DHT22;58605;48.700;8.760;2022-11-23T14:25:53;5.50;99.90
70947;DHT22;58605;48.700;8.760;2022-11-23T14:28:36;5.60;99.90
70947;DHT22;58605;48.700;8.760;2022-11-23T14:31:11;5.60;99.90
70947;DHT22;58605;48.700;8.760;2022-11-23T14:33:45;5.60;99.90
70947;DHT22;58605;48.700;8.760;2022-11-23T14:36:21;5.60;99.90
70947;DHT22;58605;48.700;8.760;2022-11-23T14:39:15;5.60;99.90
70947;DHT22;58605;48.700;8.760;2022-11-23T14:41:52;5.60;99.90
70947;DHT22;58605;48.700;8.760;2022-11-23T14:44:23;5.60;99.90
70947;DHT22;58605;48.700;8.760;2022-11-23T14:46:59;5.60;99.90
70947;DHT22;58605;48.700;8.760;2022-11-23T14:49:27;5.60;99.90
70947;DHT22;58605;48.700;8.760;2022-11-23T14:51:54;5.60;99.90
70947;DHT22;58605;48.700;8.760;2022-11-23T14:54:20;5.60;99.90
70947;DHT22;58605;48.700;8.760;2022-11-23T14:56:48;5.60;99.90
70947;DHT22;58605;48.700;8.760;2022-11-23T14:59:19;5.60;99.90
70947;DHT22;58605;48.700;8.760;2022-11-23T15:01:49;5.50;99.90
70947;DHT22;58605;48.700;8.760;2022-11-23T15:04:22;5.60;99.90
70947;DHT22;58605;48.700;8.760;2022-11-23T15:06:54;5.60;99.90
70947;DHT22;58605;48.700;8.760;2022-11-23T15:12:19;5.60;99.90
70947;DHT22;58605;48.700;8.760;2022-11-23T15:14:47;5.60;99.90
70947;DHT22;58605;48.700;8.760;2022-11-23T15:17:16;5.70;99.90
70947;DHT22;58605;48.700;8.760;2022-11-23T15:19:46;5.70;99.90
70947;DHT22;58605;48.700;8.760;2022-11-23T15:22:18;5.70;99.90
70947;DHT22;58605;48.700;8.760;2022-11-23T15:24:45;5.70;99.90
70947;DHT22;58605;48.700;8.760;2022-11-23T15:27:14;5.70;99.90
70947;DHT22;58605;48.700;8.760;2022-11-23T15:29:51;5.70;99.90
70947;DHT22;58605;48.700;8.760;2022-11-23T15:32:25;5.80;99.90
70947;DHT22;58605;48.700;8.760;2022-11-23T15:34:53;5.80;99.90
70947;DHT22;58605;48.700;8.760;2022-11-23T15:37:22;5.80;99.90
70947;DHT22;58605;48.700;8.760;2022-11-23T15:39:49;5.80;99.90
70947;DHT22;58605;48.700;8.760;2022-11-23T15:42:17;5.80;99.90
70947;DHT22;58605;48.700;8.760;2022-11-23T15:44:44;5.80;99.90
70947;DHT22;58605;48.700;8.760;2022-11-23T15:47:14;5.80;99.90
70947;DHT22;58605;48.700;8.760;2022-11-23T15:49:43;5.80;99.90
70947;DHT22;58605;48.700;8.760;2022-11-23T15:52:12;5.80;99.90
70947;DHT22;58605;48.700;8.760;2022-11-23T15:54:40;5.80;99.90
70947;DHT22;58605;48.700;8.760;2022-11-23T15:57:08;5.80;99.90
70947;DHT22;58605;48.700;8.760;2022-11-23T15:59:39;5.80;99.90
70947;DHT22;58605;48.700;8.760;2022-11-23T16:02:13;5.80;99.90
70947;DHT22;58605;48.700;8.760;2022-11-23T16:04:40;5.70;99.90
70947;DHT22;58605;48.700;8.760;2022-11-23T16:07:15;5.60;99.90
70947;DHT22;58605;48.700;8.760;2022-11-23T16:09:43;5.60;99.90
70947;DHT22;58605;48.700;8.760;2022-11-23T16:12:22;5.60;99.90
70947;DHT22;58605;48.700;8.760;2022-11-23T16:14:48;5.60;99.90
70947;DHT22;58605;48.700;8.760;2022-11-23T16:17:17;5.60;99.90
70947;DHT22;58605;48.700;8.760;2022-11-23T16:19:46;5.60;99.90